Time;durP1;ratioP1;P1;durP2;ratioP2;P2;SDS_P1;SDS_P2;PMS_P1;PMS_P2;Temp;Humidity;BMP_temperature;BMP_pressure;BME280_temperature;BME280_humidity;BME280_pressure;Samples;Min_cycle;Max_cycle;Signal;HPM_P1;HPM_P2
2024/02/07 00:01:32;;;;;;;9.23;5.20;;;10.60;99.90;;;;;;5029179;28;20186;-64
2024/02/07 00:04:03;;;;;;;10.83;5.00;;;10.60;99.90;;;;;;5029717;28;20848;-64
2024/02/07 00:06:29;;;;;;;7.93;4.87;;;10.60;99.90;;;;;;5027548;28;20181;-67
2024/02/07 00:08:55;;;;;;;12.00;5.70;;;10.60;99.90;;;;;;5029146;28;20433;-67
2024/02/07 00:11:21;;;;;;;6.13;4.60;;;10.60;99.90;;;;;;5029782;28;20455;-70
2024/02/07 00:13:47;;;;;;;5.07;4.27;;;10.60;99.90;;;;;;5028948;28;20183;-69
2024/02/07 00:16:13;;;;;;;8.80;4.90;;;10.60;99.90;;;;;;5029834;28;20890;-64
2024/02/07 00:18:39;;;;;;;8.80;5.10;;;10.50;99.90;;;;;;5029134;28;20253;-67
2024/02/07 00:21:05;;;;;;;10.47;5.00;;;10.50;99.90;;;;;;5029490;28;20421;-69
2024/02/07 00:23:32;;;;;;;6.73;4.70;;;10.50;99.90;;;;;;5029581;28;20436;-69
2024/02/07 00:25:58;;;;;;;7.53;5.40;;;10.50;99.90;;;;;;5029390;28;20500;-67
2024/02/07 00:28:23;;;;;;;6.63;5.20;;;10.50;99.90;;;;;;5028361;28;20424;-68
2024/02/07 00:30:49;;;;;;;6.37;5.23;;;10.50;99.90;;;;;;5029027;28;21278;-69
2024/02/07 00:33:15;;;;;;;6.23;4.50;;;10.50;99.90;;;;;;5029667;28;20527;-69
2024/02/07 00:35:40;;;;;;;7.53;5.40;;;10.50;99.90;;;;;;5027837;28;20257;-65
2024/02/07 00:38:06;;;;;;;5.00;4.20;;;10.50;99.90;;;;;;5027505;28;20214;-69
2024/02/07 00:40:33;;;;;;;7.70;5.03;;;10.50;99.90;;;;;;5028956;28;20321;-67
2024/02/07 00:42:58;;;;;;;8.50;4.43;;;10.50;99.90;;;;;;5028706;28;20186;-66
2024/02/07 00:45:24;;;;;;;8.30;5.13;;;10.50;99.90;;;;;;5028632;28;20426;-67
2024/02/07 00:47:51;;;;;;;8.93;5.03;;;10.50;99.90;;;;;;5029159;28;20650;-71
2024/02/07 00:50:17;;;;;;;10.27;5.70;;;10.50;99.90;;;;;;5028263;28;20429;-70
2024/02/07 00:52:43;;;;;;;11.20;5.10;;;10.50;99.90;;;;;;5029233;28;20424;-66
2024/02/07 00:55:10;;;;;;;11.70;4.77;;;10.50;99.90;;;;;;5029059;28;20461;-72
2024/02/07 00:57:36;;;;;;;6.70;4.90;;;10.50;99.90;;;;;;5027914;28;20277;-70
2024/02/07 01:00:03;;;;;;;4.53;4.13;;;10.50;99.90;;;;;;5028519;28;20432;-67
2024/02/07 01:02:28;;;;;;;7.10;5.07;;;10.50;99.90;;;;;;5028707;28;20186;-69
2024/02/07 01:04:54;;;;;;;8.80;5.30;;;10.60;99.90;;;;;;5029811;28;20927;-69
2024/02/07 01:07:20;;;;;;;8.40;5.40;;;10.60;99.90;;;;;;5026759;28;20288;-70
2024/02/07 01:09:45;;;;;;;9.13;4.73;;;10.60;99.90;;;;;;5030008;28;20178;-65
2024/02/07 01:12:11;;;;;;;8.23;5.17;;;10.60;99.90;;;;;;5027751;28;20270;-66
2024/02/07 01:14:37;;;;;;;8.60;5.10;;;10.50;99.90;;;;;;5028937;28;20875;-65
2024/02/07 01:17:03;;;;;;;7.80;5.60;;;10.60;99.90;;;;;;5028012;28;20189;-71
2024/02/07 01:19:28;;;;;;;8.93;5.20;;;10.60;99.90;;;;;;5028017;28;20225;-70
2024/02/07 01:21:55;;;;;;;6.13;4.40;;;10.60;99.90;;;;;;5028926;28;20544;-68
2024/02/07 01:24:21;;;;;;;5.73;4.73;;;10.60;99.90;;;;;;5026581;28;20189;-70
2024/02/07 01:26:47;;;;;;;7.57;4.77;;;10.60;99.90;;;;;;5027761;28;20427;-69
2024/02/07 01:29:13;;;;;;;6.90;4.17;;;10.60;99.90;;;;;;5026586;28;20190;-68
2024/02/07 01:31:38;;;;;;;4.90;4.40;;;10.60;99.90;;;;;;5028807;28;20428;-69
2024/02/07 01:34:04;;;;;;;6.67;4.23;;;10.60;99.90;;;;;;5030609;28;20424;-66
2024/02/07 01:36:30;;;;;;;8.07;4.50;;;10.60;99.90;;;;;;5028459;28;20178;-68
2024/02/07 01:38:56;;;;;;;5.97;4.60;;;10.60;99.90;;;;;;5030279;28;20210;-67
2024/02/07 01:41:31;;;;;;;8.33;4.70;;;10.60;99.90;;;;;;5027829;28;20427;-65
2024/02/07 01:43:56;;;;;;;6.90;5.17;;;10.60;99.90;;;;;;5030021;28;20181;-71
2024/02/07 01:46:23;;;;;;;7.90;5.10;;;10.60;99.90;;;;;;5028477;28;21282;-71
2024/02/07 01:48:49;;;;;;;6.50;4.30;;;10.60;99.90;;;;;;5029397;28;20193;-70
2024/02/07 01:51:15;;;;;;;5.70;4.47;;;10.60;99.90;;;;;;5027739;28;20468;-70
2024/02/07 01:53:42;;;;;;;5.40;3.93;;;10.60;99.90;;;;;;5030870;28;20512;-69
2024/02/07 01:56:10;;;;;;;7.20;3.57;;;10.60;99.90;;;;;;5029277;28;20958;-67
2024/02/07 01:58:35;;;;;;;6.00;3.63;;;10.60;99.90;;;;;;5029098;28;20531;-69
2024/02/07 02:01:03;;;;;;;7.17;5.33;;;10.70;99.90;;;;;;5029326;28;20982;-69
2024/02/07 02:03:28;;;;;;;4.70;4.27;;;10.70;99.90;;;;;;5028960;28;20997;-70
2024/02/07 02:05:55;;;;;;;7.13;5.00;;;10.70;99.90;;;;;;5029201;28;20433;-65
2024/02/07 02:08:23;;;;;;;4.53;3.60;;;10.80;99.90;;;;;;5029262;28;20209;-73
2024/02/07 02:10:54;;;;;;;4.97;3.57;;;10.70;99.90;;;;;;5030030;28;20424;-65
2024/02/07 02:13:21;;;;;;;5.67;3.63;;;10.80;99.90;;;;;;5029008;28;20998;-68
2024/02/07 02:15:47;;;;;;;4.97;3.73;;;10.70;99.90;;;;;;5029759;28;20428;-70
2024/02/07 02:18:13;;;;;;;5.53;3.67;;;10.80;99.90;;;;;;5027605;28;21284;-65
2024/02/07 02:20:38;;;;;;;6.00;3.60;;;10.70;99.90;;;;;;5028949;28;20255;-69
2024/02/07 02:23:31;;;;;;;4.73;4.20;;;10.70;99.90;;;;;;5029937;28;20190;-67
2024/02/07 02:26:19;;;;;;;5.33;3.80;;;10.70;99.90;;;;;;5028696;28;20716;-65
2024/02/07 02:29:14;;;;;;;7.10;5.23;;;10.70;99.90;;;;;;5027525;28;20770;-67
2024/02/07 02:31:44;;;;;;;6.93;5.13;;;10.70;99.90;;;;;;5029609;28;20888;-68
2024/02/07 02:34:10;;;;;;;6.40;4.10;;;10.60;99.90;;;;;;5029034;28;20425;-70
2024/02/07 02:36:37;;;;;;;7.00;4.00;;;10.60;99.90;;;;;;5029059;28;20473;-67
2024/02/07 02:39:05;;;;;;;6.23;4.20;;;10.60;99.90;;;;;;5032067;28;20556;-67
2024/02/07 02:41:32;;;;;;;5.10;3.80;;;10.60;99.90;;;;;;5031132;28;20439;-71
2024/02/07 02:43:58;;;;;;;4.30;3.90;;;10.70;99.90;;;;;;5033059;28;20791;-66
2024/02/07 02:46:25;;;;;;;8.60;4.23;;;10.70;99.90;;;;;;5031552;28;20440;-67
2024/02/07 02:48:51;;;;;;;4.30;3.50;;;10.70;99.90;;;;;;5032571;28;20186;-70
2024/02/07 02:51:16;;;;;;;6.00;4.17;;;10.70;99.90;;;;;;5030528;28;20428;-69
2024/02/07 02:53:43;;;;;;;6.10;4.40;;;10.60;99.90;;;;;;5033461;28;20183;-67
2024/02/07 02:56:10;;;;;;;4.10;3.70;;;10.70;99.90;;;;;;5032386;28;20543;-65
2024/02/07 02:58:36;;;;;;;4.80;4.03;;;10.70;99.90;;;;;;5031264;28;20470;-68
2024/02/07 03:01:05;;;;;;;6.70;4.40;;;10.80;99.90;;;;;;5032616;28;20425;-70
2024/02/07 03:03:31;;;;;;;5.27;4.30;;;10.80;99.90;;;;;;5031234;28;20189;-70
2024/02/07 03:06:00;;;;;;;4.47;3.63;;;10.80;99.90;;;;;;5032070;28;20747;-65
2024/02/07 03:08:39;;;;;;;3.67;2.20;;;10.80;99.90;;;;;;5031127;28;20578;-69
2024/02/07 03:11:09;;;;;;;2.30;2.10;;;10.80;99.90;;;;;;5032020;28;20494;-67
2024/02/07 03:13:37;;;;;;;2.40;1.30;;;10.70;99.90;;;;;;5030986;28;20499;-68
2024/02/07 03:16:06;;;;;;;1.80;1.10;;;10.50;99.90;;;;;;5031696;28;20424;-70
2024/02/07 03:18:34;;;;;;;2.30;1.07;;;10.40;99.90;;;;;;5031196;28;20491;-71
2024/02/07 03:21:08;;;;;;;3.43;1.20;;;10.30;99.90;;;;;;5031869;28;20420;-68
2024/02/07 03:23:34;;;;;;;2.73;2.30;;;10.20;99.90;;;;;;5031060;28;20417;-71
2024/02/07 03:26:01;;;;;;;2.63;1.53;;;10.00;99.90;;;;;;5031646;28;20567;-67
2024/02/07 03:28:27;;;;;;;1.30;0.80;;;9.90;99.90;;;;;;5029203;28;20963;-69
2024/02/07 03:30:53;;;;;;;1.30;1.20;;;9.80;99.90;;;;;;5031773;28;20484;-66
2024/02/07 03:33:19;;;;;;;1.60;1.20;;;9.70;99.90;;;;;;5032040;28;20429;-66
2024/02/07 03:35:45;;;;;;;4.07;1.30;;;9.60;99.90;;;;;;5030730;28;20194;-67
2024/02/07 03:38:12;;;;;;;1.70;1.00;;;9.50;99.90;;;;;;5032090;28;21281;-68
2024/02/07 03:40:37;;;;;;;1.27;1.17;;;9.40;99.90;;;;;;5030262;28;20516;-72
2024/02/07 03:43:03;;;;;;;3.23;1.50;;;9.40;99.90;;;;;;5032356;28;20425;-70
2024/02/07 03:45:32;;;;;;;2.73;1.30;;;9.30;99.90;;;;;;5030831;28;20186;-68
2024/02/07 03:47:58;;;;;;;2.43;1.43;;;9.20;99.90;;;;;;5029695;28;20448;-68
2024/02/07 03:50:27;;;;;;;6.23;1.70;;;9.20;99.90;;;;;;5030659;28;20439;-72
2024/02/07 03:52:54;;;;;;;3.10;1.80;;;9.20;99.90;;;;;;5030759;28;20186;-70
2024/02/07 03:55:21;;;;;;;3.17;1.63;;;9.10;99.90;;;;;;5031450;28;20977;-66
2024/02/07 03:57:48;;;;;;;4.47;1.83;;;9.00;99.90;;;;;;5028926;28;20968;-71
2024/02/07 04:00:15;;;;;;;1.83;1.30;;;9.00;99.90;;;;;;5031195;28;21209;-64
2024/02/07 04:02:48;;;;;;;1.73;1.20;;;9.00;99.90;;;;;;5030481;28;20768;-70
2024/02/07 04:05:16;;;;;;;3.40;1.20;;;9.00;99.90;;;;;;5031559;28;20433;-68
2024/02/07 04:07:42;;;;;;;3.97;2.10;;;8.90;99.90;;;;;;5028201;28;20433;-68
2024/02/07 04:10:11;;;;;;;3.73;1.40;;;8.80;99.90;;;;;;5031174;28;20428;-65
2024/02/07 05:15:41;;;;;;;2.50;2.30;;;8.00;99.90;;;;;;5029724;28;20436;-68
2024/02/07 05:18:06;;;;;;;3.07;2.47;;;8.00;99.90;;;;;;5029092;28;20475;-65
2024/02/07 05:20:32;;;;;;;3.73;2.50;;;8.00;99.90;;;;;;5028956;28;20186;-66
2024/02/07 05:22:58;;;;;;;2.20;1.53;;;8.00;99.90;;;;;;5030274;28;20189;-71
2024/02/07 05:25:24;;;;;;;2.43;1.90;;;7.90;99.90;;;;;;5030108;28;20592;-63
2024/02/07 05:27:50;;;;;;;3.00;1.87;;;7.90;99.90;;;;;;5028271;28;20190;-68
2024/02/07 05:30:16;;;;;;;2.70;2.43;;;7.90;99.90;;;;;;5029745;28;20435;-69
2024/02/07 05:32:42;;;;;;;5.07;2.77;;;7.90;99.90;;;;;;5030257;28;20205;-67
2024/02/07 05:35:08;;;;;;;2.97;2.20;;;7.90;99.90;;;;;;5029509;28;20959;-71
2024/02/07 05:37:35;;;;;;;2.63;2.17;;;7.90;99.90;;;;;;5029204;28;20427;-68
2024/02/07 05:40:01;;;;;;;3.17;2.40;;;7.90;99.90;;;;;;5029844;28;20453;-71
2024/02/07 05:42:27;;;;;;;2.50;2.20;;;7.90;99.90;;;;;;5030644;28;21146;-70
2024/02/07 05:44:52;;;;;;;3.90;1.80;;;7.90;99.90;;;;;;5028905;28;20424;-67
2024/02/07 05:47:20;;;;;;;2.20;1.83;;;7.90;99.90;;;;;;5028289;28;20607;-68
2024/02/07 05:49:46;;;;;;;3.17;1.90;;;7.90;99.90;;;;;;5030232;28;20276;-69
2024/02/07 05:52:11;;;;;;;3.33;1.80;;;7.90;99.90;;;;;;5028913;28;21380;-70
2024/02/07 05:54:37;;;;;;;2.07;1.70;;;7.90;99.90;;;;;;5029675;28;20484;-68
2024/02/07 05:57:03;;;;;;;1.80;1.50;;;7.80;99.90;;;;;;5028108;28;20181;-67
2024/02/07 05:59:29;;;;;;;2.17;1.50;;;7.80;99.90;;;;;;5028561;28;20221;-69
2024/02/07 06:01:54;;;;;;;2.20;1.70;;;7.80;99.90;;;;;;5022934;28;20812;-66
2024/02/07 06:04:20;;;;;;;2.10;1.73;;;7.80;99.90;;;;;;5026005;28;20190;-66
2024/02/07 06:06:46;;;;;;;3.47;1.63;;;7.70;99.90;;;;;;5025609;28;20185;-64
2024/02/07 06:09:12;;;;;;;3.20;2.20;;;7.70;99.90;;;;;;5028134;28;20986;-66
2024/02/07 06:11:41;;;;;;;2.13;1.90;;;7.60;99.90;;;;;;5026851;28;20208;-64
2024/02/07 06:14:16;;;;;;;2.37;2.10;;;7.60;99.90;;;;;;5030187;28;20472;-69
2024/02/07 06:16:42;;;;;;;4.83;2.87;;;7.50;99.90;;;;;;5032208;28;20526;-67
2024/02/07 06:19:08;;;;;;;3.53;1.90;;;7.50;99.90;;;;;;5031906;28;20976;-65
2024/02/07 06:21:34;;;;;;;4.30;1.97;;;7.50;99.90;;;;;;5032476;28;20445;-70
2024/02/07 06:23:59;;;;;;;2.87;1.90;;;7.50;99.90;;;;;;5032439;28;20190;-66
2024/02/07 06:26:26;;;;;;;2.70;1.43;;;7.40;99.90;;;;;;5031891;28;20181;-70
2024/02/07 06:28:52;;;;;;;1.93;1.20;;;7.40;99.90;;;;;;5030588;28;20197;-67
2024/02/07 06:31:18;;;;;;;4.13;1.80;;;7.40;99.90;;;;;;5033001;28;20615;-64
2024/02/07 06:33:44;;;;;;;3.23;1.40;;;7.40;99.90;;;;;;5033065;28;20181;-66
2024/02/07 06:36:10;;;;;;;1.83;1.20;;;7.20;99.90;;;;;;5032425;28;20482;-69
2024/02/07 06:38:36;;;;;;;3.97;1.20;;;7.20;99.90;;;;;;5033540;28;20304;-70
2024/02/07 06:41:01;;;;;;;2.57;1.13;;;7.20;99.90;;;;;;5032352;28;20431;-69
2024/02/07 06:43:27;;;;;;;2.90;1.30;;;7.10;99.90;;;;;;5033836;28;20182;-68
2024/02/07 06:45:53;;;;;;;1.73;1.03;;;7.10;99.90;;;;;;5031379;28;20547;-68
2024/02/07 06:48:19;;;;;;;1.73;1.20;;;7.00;99.90;;;;;;5030912;28;20198;-66
2024/02/07 06:50:47;;;;;;;1.37;1.03;;;7.00;99.90;;;;;;5032983;28;20196;-68
2024/02/07 06:53:13;;;;;;;2.03;1.50;;;7.00;99.90;;;;;;5030892;28;20448;-66
2024/02/07 06:55:39;;;;;;;2.20;1.30;;;6.90;99.90;;;;;;5032286;28;20429;-69
2024/02/07 06:58:05;;;;;;;2.37;0.90;;;6.90;99.90;;;;;;5032145;28;20841;-69
2024/02/07 07:00:30;;;;;;;1.50;1.17;;;6.80;99.90;;;;;;5030770;28;20198;-67
2024/02/07 07:02:56;;;;;;;2.27;1.73;;;6.80;99.90;;;;;;5030658;28;20332;-68
2024/02/07 07:05:22;;;;;;;3.40;1.93;;;6.70;99.90;;;;;;5031744;28;20194;-69
2024/02/07 07:07:47;;;;;;;2.60;1.60;;;6.70;99.90;;;;;;5032946;28;20189;-66
2024/02/07 07:10:13;;;;;;;2.70;1.60;;;6.70;99.90;;;;;;5030214;28;21482;-69
2024/02/07 07:12:39;;;;;;;3.53;2.10;;;6.70;99.90;;;;;;5032337;28;20182;-67
2024/02/07 07:15:05;;;;;;;2.20;1.77;;;6.60;99.90;;;;;;5014475;28;20682;-67
2024/02/07 07:17:30;;;;;;;5.00;2.20;;;6.60;99.90;;;;;;5029707;28;20298;-70
2024/02/07 07:19:56;;;;;;;4.13;2.60;;;6.50;99.90;;;;;;5031630;28;20579;-67
2024/02/07 07:22:24;;;;;;;2.90;2.00;;;6.50;99.90;;;;;;5026988;28;20846;-70
2024/02/07 07:24:50;;;;;;;3.07;2.00;;;6.50;99.90;;;;;;5027331;28;20209;-68
2024/02/07 07:27:16;;;;;;;2.53;2.20;;;6.40;99.90;;;;;;5027490;28;20948;-71
2024/02/07 07:29:41;;;;;;;3.87;2.00;;;6.40;99.90;;;;;;5027080;28;20532;-64
2024/02/07 07:32:09;;;;;;;3.30;2.43;;;6.30;99.90;;;;;;5027857;28;20190;-70
2024/02/07 07:34:35;;;;;;;2.07;1.83;;;6.30;99.90;;;;;;5029172;28;20186;-64
2024/02/07 07:37:01;;;;;;;2.50;2.20;;;6.30;99.90;;;;;;5031958;28;20433;-66
2024/02/07 07:39:27;;;;;;;5.80;3.10;;;6.20;99.90;;;;;;5030147;28;20491;-67
2024/02/07 07:41:53;;;;;;;4.53;2.43;;;6.10;99.90;;;;;;5031618;28;20436;-69
2024/02/07 07:44:19;;;;;;;3.73;2.20;;;6.10;99.90;;;;;;5030843;28;20440;-70
2024/02/07 07:46:45;;;;;;;3.70;2.03;;;6.10;99.90;;;;;;5029639;28;20221;-68
2024/02/07 07:49:11;;;;;;;3.90;2.10;;;6.00;99.90;;;;;;5029644;28;20195;-68
2024/02/07 07:51:37;;;;;;;2.40;1.60;;;5.90;99.90;;;;;;5030634;28;20439;-67
2024/02/07 07:54:03;;;;;;;2.30;1.67;;;5.90;99.90;;;;;;5031076;28;20437;-68
2024/02/07 07:56:31;;;;;;;2.80;1.87;;;5.90;99.90;;;;;;5028636;28;20708;-72
2024/02/07 07:58:57;;;;;;;3.10;2.13;;;5.90;99.90;;;;;;5029996;28;20643;-71
2024/02/07 08:01:23;;;;;;;3.50;2.60;;;5.90;99.90;;;;;;5029332;28;21066;-69
2024/02/07 08:03:49;;;;;;;5.17;2.00;;;5.80;99.90;;;;;;5032620;28;20562;-67
2024/02/07 08:06:16;;;;;;;4.87;2.00;;;5.80;99.90;;;;;;5030043;28;20281;-64
2024/02/07 08:08:42;;;;;;;2.57;2.13;;;5.70;99.90;;;;;;5032080;28;20442;-70
2024/02/07 08:11:07;;;;;;;2.57;2.07;;;5.70;99.90;;;;;;5032092;28;20937;-68
2024/02/07 08:13:33;;;;;;;4.40;2.27;;;5.70;99.90;;;;;;5030740;28;20436;-71
2024/02/07 08:16:02;;;;;;;3.10;2.10;;;5.80;99.90;;;;;;5030799;28;20269;-67
2024/02/07 08:18:30;;;;;;;2.77;1.77;;;5.90;99.90;;;;;;5032178;28;20513;-68
2024/02/07 08:20:56;;;;;;;4.17;2.60;;;5.90;99.90;;;;;;5031300;28;20972;-71
2024/02/07 08:23:22;;;;;;;2.33;1.70;;;5.90;99.90;;;;;;5031102;28;20441;-71
2024/02/07 08:25:48;;;;;;;3.93;2.17;;;6.00;99.90;;;;;;5030955;28;20502;-68
2024/02/07 08:28:13;;;;;;;3.13;2.00;;;6.00;99.90;;;;;;5030054;28;21002;-65
2024/02/07 08:30:39;;;;;;;2.43;1.53;;;6.10;99.90;;;;;;5030964;28;20713;-66
2024/02/07 08:33:05;;;;;;;4.30;2.00;;;6.10;99.90;;;;;;5030885;28;20180;-71
2024/02/07 08:35:31;;;;;;;5.20;1.50;;;6.10;99.90;;;;;;5029408;28;20436;-68
2024/02/07 08:37:58;;;;;;;1.63;1.40;;;6.10;99.90;;;;;;5030978;28;20432;-67
2024/02/07 08:40:28;;;;;;;4.43;2.00;;;6.10;99.90;;;;;;5030257;28;20444;-66
2024/02/07 08:42:53;;;;;;;3.30;1.77;;;6.10;99.90;;;;;;5030800;28;20468;-72
2024/02/07 08:45:20;;;;;;;2.27;1.30;;;6.10;99.90;;;;;;5030739;28;20464;-67
2024/02/07 08:47:47;;;;;;;4.03;2.00;;;6.10;99.90;;;;;;5029492;28;20193;-71
2024/02/07 08:50:14;;;;;;;3.93;2.60;;;6.00;99.90;;;;;;5030834;28;20480;-69
2024/02/07 08:52:40;;;;;;;2.73;2.53;;;6.10;99.90;;;;;;5028282;28;21048;-67
2024/02/07 08:55:10;;;;;;;3.27;2.53;;;6.10;99.90;;;;;;5030868;28;20444;-70
2024/02/07 08:57:36;;;;;;;4.73;2.40;;;6.10;99.90;;;;;;5028674;28;20542;-70
2024/02/07 09:00:03;;;;;;;3.20;2.20;;;6.20;99.90;;;;;;5028760;28;20473;-68
2024/02/07 09:02:29;;;;;;;3.13;1.97;;;6.20;99.90;;;;;;5029924;28;20440;-66
2024/02/07 09:04:56;;;;;;;2.30;1.70;;;6.30;99.90;;;;;;5030058;28;20793;-71
2024/02/07 09:07:22;;;;;;;3.83;1.93;;;6.30;99.90;;;;;;5028849;28;20244;-69
2024/02/07 09:09:48;;;;;;;2.47;2.07;;;6.30;99.90;;;;;;5030657;28;20432;-70
2024/02/07 09:12:13;;;;;;;3.57;2.47;;;6.30;99.90;;;;;;5030272;28;20680;-69
2024/02/07 09:14:39;;;;;;;2.80;1.87;;;6.40;99.90;;;;;;5030508;28;20190;-69
2024/02/07 09:17:05;;;;;;;5.23;2.00;;;6.40;99.90;;;;;;5028334;28;20301;-69
2024/02/07 09:19:31;;;;;;;2.57;1.70;;;6.40;99.90;;;;;;5030013;28;20276;-69
2024/02/07 09:21:56;;;;;;;2.67;1.90;;;6.40;99.90;;;;;;5030065;28;20221;-68
2024/02/07 09:24:22;;;;;;;3.10;1.67;;;6.40;99.90;;;;;;5029153;28;20183;-67
2024/02/07 09:26:49;;;;;;;3.27;2.03;;;6.40;99.90;;;;;;5028369;28;20816;-72
2024/02/07 09:29:15;;;;;;;3.97;2.10;;;6.40;99.90;;;;;;5029039;28;20761;-71
2024/02/07 09:31:41;;;;;;;5.20;2.43;;;6.40;99.90;;;;;;5028619;28;20429;-69
2024/02/07 09:34:06;;;;;;;2.97;2.20;;;6.50;99.90;;;;;;5030175;28;20432;-69
2024/02/07 09:36:38;;;;;;;2.67;2.17;;;6.50;99.90;;;;;;5029226;28;20183;-69
2024/02/07 09:39:04;;;;;;;6.37;3.17;;;6.50;99.90;;;;;;5029989;28;20246;-69
2024/02/07 09:41:32;;;;;;;3.63;2.80;;;6.50;99.90;;;;;;5029997;28;20419;-68
2024/02/07 09:44:02;;;;;;;3.67;2.67;;;6.50;99.90;;;;;;5030296;28;20531;-66
2024/02/07 09:46:42;;;;;;;3.70;3.27;;;6.50;99.90;;;;;;5028789;28;20964;-69
2024/02/07 09:49:13;;;;;;;7.57;4.00;;;6.50;99.90;;;;;;5030119;28;20443;-67
2024/02/07 09:51:42;;;;;;;3.80;3.23;;;6.60;99.90;;;;;;5028149;28;20432;-68
2024/02/07 09:54:12;;;;;;;4.73;4.23;;;6.60;99.90;;;;;;5029979;28;20432;-66
2024/02/07 09:56:39;;;;;;;6.40;4.47;;;6.60;99.90;;;;;;5027960;28;20524;-71
2024/02/07 09:59:09;;;;;;;4.97;4.23;;;6.60;99.90;;;;;;5029945;28;20471;-65
2024/02/07 10:01:35;;;;;;;6.50;4.07;;;6.60;99.90;;;;;;5059765;28;20490;-66
2024/02/07 10:04:02;;;;;;;8.17;4.80;;;6.60;99.90;;;;;;5029436;28;20974;-68
2024/02/07 10:06:28;;;;;;;7.13;4.30;;;6.60;99.90;;;;;;5029004;28;20435;-68
2024/02/07 10:08:54;;;;;;;5.80;4.30;;;6.70;99.90;;;;;;5029420;28;20907;-68
2024/02/07 10:11:22;;;;;;;9.37;5.20;;;6.70;99.90;;;;;;5029953;28;20213;-69
2024/02/07 10:13:48;;;;;;;6.77;4.90;;;6.70;99.90;;;;;;5029208;28;20420;-67
2024/02/07 10:16:14;;;;;;;8.43;5.63;;;6.70;99.90;;;;;;5029352;28;20433;-69
2024/02/07 10:18:41;;;;;;;5.47;4.50;;;6.70;99.90;;;;;;5029252;28;20244;-71
2024/02/07 10:21:06;;;;;;;8.13;4.60;;;6.70;99.90;;;;;;5028105;28;20495;-66
2024/02/07 10:23:32;;;;;;;7.13;3.63;;;6.70;99.90;;;;;;5029571;28;21029;-67
2024/02/07 10:25:59;;;;;;;4.67;3.40;;;6.70;99.90;;;;;;5028840;28;20181;-65
2024/02/07 10:28:26;;;;;;;5.83;3.50;;;6.80;99.90;;;;;;5028156;28;20198;-65
2024/02/07 10:30:56;;;;;;;6.10;4.30;;;6.70;99.90;;;;;;5027719;28;20437;-70
2024/02/07 10:33:22;;;;;;;6.23;3.03;;;6.70;99.90;;;;;;5029730;28;20551;-68
2024/02/07 10:35:58;;;;;;;4.20;3.30;;;6.70;99.90;;;;;;5028579;28;21246;-67
2024/02/07 10:38:28;;;;;;;5.43;3.83;;;6.70;99.90;;;;;;5029755;28;20209;-68
2024/02/07 10:40:54;;;;;;;5.30;4.60;;;6.80;99.90;;;;;;5027649;28;20432;-67
2024/02/07 10:43:46;;;;;;;7.43;4.60;;;6.80;99.90;;;;;;5030200;28;20436;-68
2024/02/07 10:46:17;;;;;;;8.47;5.70;;;6.80;99.90;;;;;;5027686;28;20437;-69
2024/02/07 10:48:43;;;;;;;7.63;5.47;;;6.80;99.90;;;;;;5028274;28;20495;-69
2024/02/07 10:51:09;;;;;;;10.50;6.93;;;6.80;99.90;;;;;;5029410;28;20448;-67
2024/02/07 10:53:36;;;;;;;9.10;7.67;;;6.80;99.90;;;;;;5029055;28;20433;-70
2024/02/07 10:56:04;;;;;;;9.73;6.93;;;6.80;99.90;;;;;;5027956;28;20487;-67
2024/02/07 10:58:32;;;;;;;12.70;7.07;;;6.80;99.90;;;;;;5030807;28;20475;-66
2024/02/07 11:00:58;;;;;;;12.13;7.43;;;6.80;99.90;;;;;;5031660;28;20515;-68
2024/02/07 11:03:35;;;;;;;10.33;7.90;;;6.90;99.90;;;;;;5032635;28;20436;-70
2024/02/07 11:06:01;;;;;;;16.57;8.27;;;6.90;99.90;;;;;;5032252;28;20468;-67
2024/02/07 11:08:28;;;;;;;10.30;9.20;;;6.90;99.90;;;;;;5032062;28;20432;-65
2024/02/07 11:10:54;;;;;;;10.80;9.30;;;6.80;99.90;;;;;;5031636;28;20436;-67
2024/02/07 11:13:20;;;;;;;12.20;9.17;;;6.80;99.90;;;;;;5032219;28;20816;-64
2024/02/07 11:15:46;;;;;;;13.63;9.60;;;6.80;99.90;;;;;;5031281;28;20491;-68
2024/02/07 11:18:12;;;;;;;14.40;9.63;;;6.80;99.90;;;;;;5031854;28;20559;-67
2024/02/07 11:20:39;;;;;;;45.10;38.60;;;6.90;99.90;;;;;;5031773;28;20170;-68
2024/02/07 11:23:37;;;;;;;16.20;11.77;;;6.90;99.90;;;;;;5031594;28;20271;-68
2024/02/07 11:26:04;;;;;;;15.73;9.73;;;6.90;99.90;;;;;;5056664;28;20994;-68
2024/02/07 11:28:30;;;;;;;13.80;12.40;;;6.90;99.90;;;;;;5031382;28;20843;-66
2024/02/07 11:30:58;;;;;;;17.60;11.90;;;6.90;99.90;;;;;;5031115;28;20425;-66
2024/02/07 11:33:24;;;;;;;11.97;10.70;;;7.00;99.90;;;;;;5032199;28;20214;-66
2024/02/07 11:35:51;;;;;;;12.87;8.40;;;7.00;99.90;;;;;;5031886;28;20816;-66
2024/02/07 11:38:18;;;;;;;14.40;10.80;;;7.00;99.90;;;;;;5030699;28;20530;-70
2024/02/07 11:40:45;;;;;;;11.87;8.93;;;7.00;99.90;;;;;;5031925;28;20445;-69
2024/02/07 11:43:23;;;;;;;12.53;10.60;;;7.00;99.90;;;;;;5031775;28;20540;-66
2024/02/07 11:45:50;;;;;;;19.67;10.47;;;7.10;99.90;;;;;;5030615;28;20435;-68
2024/02/07 11:48:23;;;;;;;15.13;10.30;;;7.10;99.90;;;;;;5031208;28;20456;-67
2024/02/07 11:50:50;;;;;;;12.60;9.70;;;7.10;99.90;;;;;;5031142;28;20484;-67
2024/02/07 11:53:26;;;;;;;11.73;9.13;;;7.10;99.90;;;;;;5031347;28;20451;-66
2024/02/07 11:55:52;;;;;;;11.33;10.00;;;7.10;99.90;;;;;;5030165;28;20417;-71
2024/02/07 11:58:18;;;;;;;13.73;9.97;;;7.10;99.90;;;;;;5030823;28;20467;-67
2024/02/07 12:00:45;;;;;;;12.87;9.63;;;7.10;99.90;;;;;;5031452;28;20493;-70
2024/02/07 12:03:14;;;;;;;10.97;9.87;;;7.10;99.90;;;;;;5031619;28;20472;-67
2024/02/07 12:05:41;;;;;;;13.80;9.53;;;7.10;99.90;;;;;;5030507;28;20431;-67
2024/02/07 12:08:09;;;;;;;14.07;9.37;;;7.10;99.90;;;;;;5030080;28;20424;-66
2024/02/07 12:10:35;;;;;;;13.10;9.50;;;7.10;99.90;;;;;;5031281;28;20432;-70
2024/02/07 12:13:00;;;;;;;12.20;9.90;;;7.10;99.90;;;;;;5031495;28;20425;-71
2024/02/07 12:15:27;;;;;;;12.17;9.57;;;7.20;99.90;;;;;;5031235;28;20555;-69
2024/02/07 12:17:56;;;;;;;11.80;9.63;;;7.10;99.90;;;;;;5029537;28;20996;-65
2024/02/07 12:20:28;;;;;;;16.07;10.07;;;7.20;99.90;;;;;;5031300;28;20532;-69
2024/02/07 12:23:01;;;;;;;12.77;9.67;;;7.20;99.90;;;;;;5030029;28;20454;-69
2024/02/07 12:25:27;;;;;;;14.47;9.97;;;7.20;99.90;;;;;;5030443;28;20791;-66
2024/02/07 12:27:52;;;;;;;12.50;9.90;;;7.20;99.90;;;;;;5028101;28;20488;-71
2024/02/07 12:30:19;;;;;;;13.30;9.13;;;7.20;99.90;;;;;;5030507;28;20602;-70
2024/02/07 12:32:44;;;;;;;15.87;9.30;;;7.20;99.90;;;;;;5031394;28;20288;-66
2024/02/07 12:35:11;;;;;;;10.83;8.67;;;7.20;99.90;;;;;;5031042;28;20490;-67
2024/02/07 12:37:38;;;;;;;11.20;9.30;;;7.30;99.90;;;;;;5029171;28;20190;-67
2024/02/07 12:40:13;;;;;;;18.13;9.90;;;7.30;99.90;;;;;;5029809;28;20514;-65
2024/02/07 12:42:39;;;;;;;12.23;9.00;;;7.30;99.90;;;;;;5028520;28;20962;-68
2024/02/07 12:45:07;;;;;;;13.67;8.33;;;7.30;99.90;;;;;;5030365;28;20483;-67
2024/02/07 12:47:33;;;;;;;13.20;8.10;;;7.30;99.90;;;;;;5029396;28;20226;-67
2024/02/07 12:49:59;;;;;;;15.73;8.70;;;7.30;99.90;;;;;;5030521;28;20968;-69
2024/02/07 12:52:24;;;;;;;13.83;7.63;;;7.30;99.90;;;;;;5030631;28;20177;-70
2024/02/07 12:54:50;;;;;;;11.73;8.47;;;7.30;99.90;;;;;;5029824;28;20201;-68
2024/02/07 12:57:21;;;;;;;13.57;8.33;;;7.40;99.90;;;;;;5028465;28;20277;-66
2024/02/07 12:59:47;;;;;;;11.40;8.03;;;7.40;99.90;;;;;;5030475;28;20210;-66
2024/02/07 13:02:14;;;;;;;19.33;8.30;;;7.40;99.90;;;;;;5028927;28;20443;-67
2024/02/07 13:04:40;;;;;;;15.13;9.37;;;7.40;99.90;;;;;;5030346;28;20467;-70
2024/02/07 13:07:09;;;;;;;18.03;8.40;;;7.40;99.90;;;;;;5029950;28;20495;-73
2024/02/07 13:09:35;;;;;;;14.80;8.77;;;7.50;99.90;;;;;;5030382;28;20437;-72
2024/02/07 13:12:01;;;;;;;11.43;8.63;;;7.50;99.90;;;;;;5029948;28;20420;-69
2024/02/07 13:14:27;;;;;;;10.23;7.90;;;7.40;99.90;;;;;;5030182;28;21067;-71
2024/02/07 13:16:52;;;;;;;14.03;9.17;;;7.50;99.90;;;;;;5030930;28;20194;-66
2024/02/07 13:19:19;;;;;;;14.00;8.50;;;7.50;99.90;;;;;;5060663;28;20700;-69
2024/02/07 13:21:45;;;;;;;14.30;9.03;;;7.50;99.90;;;;;;5030131;28;20182;-68
2024/02/07 13:24:20;;;;;;;12.77;7.27;;;7.50;99.90;;;;;;5030214;28;20578;-67
2024/02/07 13:26:50;;;;;;;13.00;7.90;;;7.50;99.90;;;;;;5029392;28;20436;-68
2024/02/07 13:29:17;;;;;;;12.43;7.60;;;7.50;99.90;;;;;;5027624;28;20445;-70
2024/02/07 13:31:43;;;;;;;13.53;8.70;;;7.50;99.90;;;;;;5030591;28;20433;-70
2024/02/07 13:34:10;;;;;;;14.73;8.83;;;7.60;99.90;;;;;;5030634;28;20962;-65
2024/02/07 13:36:37;;;;;;;15.17;9.13;;;7.50;99.90;;;;;;5029571;28;20487;-70
2024/02/07 13:39:04;;;;;;;17.90;8.10;;;7.50;99.90;;;;;;5029070;28;20465;-69
2024/02/07 13:41:31;;;;;;;17.07;9.07;;;7.50;99.90;;;;;;5029057;28;20465;-68
2024/02/07 13:43:57;;;;;;;20.23;8.67;;;7.60;99.90;;;;;;5029900;28;20532;-71
2024/02/07 13:46:23;;;;;;;12.73;7.80;;;7.60;99.90;;;;;;5028903;28;20442;-68
2024/02/07 13:48:48;;;;;;;12.83;8.27;;;7.60;99.90;;;;;;5029410;28;20440;-70
2024/02/07 13:51:14;;;;;;;16.20;9.10;;;7.60;99.90;;;;;;5028925;28;20182;-69
2024/02/07 13:53:40;;;;;;;12.43;8.20;;;7.60;99.90;;;;;;5029905;28;20196;-66